sensor_id;sensor_type;location;lat;lon;timestamp;temperature;humidity
52965;DHT22;42923;53.220;6.528;2024-01-16T00:01:46;0.00;99.90
52965;DHT22;42923;53.220;6.528;2024-01-16T00:04:11;-0.10;99.90
52965;DHT22;42923;53.220;6.528;2024-01-16T00:06:40;0.00;99.90
52965;DHT22;42923;53.220;6.528;2024-01-16T00:09:06;-0.30;99.90
52965;DHT22;42923;53.220;6.528;2024-01-16T00:11:32;-0.40;99.90
52965;DHT22;42923;53.220;6.528;2024-01-16T00:13:57;-0.50;99.90
52965;DHT22;42923;53.220;6.528;2024-01-16T00:16:23;-0.50;99.90
52965;DHT22;42923;53.220;6.528;2024-01-16T00:18:48;-0.60;99.90
52965;DHT22;42923;53.220;6.528;2024-01-16T00:21:14;-0.60;99.90
52965;DHT22;42923;53.220;6.528;2024-01-16T00:23:40;-0.60;99.90
52965;DHT22;42923;53.220;6.528;2024-01-16T00:26:05;-0.90;99.90
52965;DHT22;42923;53.220;6.528;2024-01-16T00:28:31;-0.60;99.90
52965;DHT22;42923;53.220;6.528;2024-01-16T00:30:57;-0.60;99.90
52965;DHT22;42923;53.220;6.528;2024-01-16T00:33:23;-0.60;99.90
52965;DHT22;42923;53.220;6.528;2024-01-16T00:35:48;-0.60;99.90
52965;DHT22;42923;53.220;6.528;2024-01-16T00:38:14;0.50;99.90
52965;DHT22;42923;53.220;6.528;2024-01-16T00:40:39;-0.70;99.90
52965;DHT22;42923;53.220;6.528;2024-01-16T00:43:05;0.80;99.90
52965;DHT22;42923;53.220;6.528;2024-01-16T00:45:31;-0.90;99.90
52965;DHT22;42923;53.220;6.528;2024-01-16T00:47:56;0.80;99.90
52965;DHT22;42923;53.220;6.528;2024-01-16T00:50:22;-1.00;99.90
52965;DHT22;42923;53.220;6.528;2024-01-16T00:52:47;0.70;99.90
52965;DHT22;42923;53.220;6.528;2024-01-16T00:55:13;-1.00;99.90
52965;DHT22;42923;53.220;6.528;2024-01-16T00:57:39;-1.00;99.90
52965;DHT22;42923;53.220;6.528;2024-01-16T01:00:05;-0.90;99.90
52965;DHT22;42923;53.220;6.528;2024-01-16T01:02:30;-0.80;99.90
52965;DHT22;42923;53.220;6.528;2024-01-16T01:04:56;-0.70;99.90
52965;DHT22;42923;53.220;6.528;2024-01-16T01:07:21;-0.60;99.90
52965;DHT22;42923;53.220;6.528;2024-01-16T01:09:47;-0.60;99.90
52965;DHT22;42923;53.220;6.528;2024-01-16T01:12:13;-0.50;99.90
52965;DHT22;42923;53.220;6.528;2024-01-16T01:14:38;-0.60;99.90
52965;DHT22;42923;53.220;6.528;2024-01-16T01:17:04;-0.60;99.90
52965;DHT22;42923;53.220;6.528;2024-01-16T01:19:30;0.10;99.90
52965;DHT22;42923;53.220;6.528;2024-01-16T01:21:56;1.20;99.90
52965;DHT22;42923;53.220;6.528;2024-01-16T01:24:21;-0.60;99.90
52965;DHT22;42923;53.220;6.528;2024-01-16T01:26:47;-0.70;99.90
52965;DHT22;42923;53.220;6.528;2024-01-16T01:29:12;-1.70;99.90
52965;DHT22;42923;53.220;6.528;2024-01-16T01:31:38;-0.80;99.90
52965;DHT22;42923;53.220;6.528;2024-01-16T01:34:04;-0.80;99.90
52965;DHT22;42923;53.220;6.528;2024-01-16T01:36:29;-0.90;99.90
52965;DHT22;42923;53.220;6.528;2024-01-16T01:38:55;-0.90;99.90
52965;DHT22;42923;53.220;6.528;2024-01-16T01:41:21;-0.90;99.90
52965;DHT22;42923;53.220;6.528;2024-01-16T01:43:46;-0.90;99.90
52965;DHT22;42923;53.220;6.528;2024-01-16T01:46:18;-0.90;99.90
52965;DHT22;42923;53.220;6.528;2024-01-16T01:48:47;-0.90;99.90
52965;DHT22;42923;53.220;6.528;2024-01-16T01:51:13;-0.90;99.90
52965;DHT22;42923;53.220;6.528;2024-01-16T01:53:39;-1.20;99.90
52965;DHT22;42923;53.220;6.528;2024-01-16T01:56:07;-0.80;99.90
52965;DHT22;42923;53.220;6.528;2024-01-16T01:58:34;0.80;99.90
52965;DHT22;42923;53.220;6.528;2024-01-16T02:01:00;-0.70;99.90
52965;DHT22;42923;53.220;6.528;2024-01-16T02:03:27;-0.60;99.90
52965;DHT22;42923;53.220;6.528;2024-01-16T02:05:52;-0.70;99.90
52965;DHT22;42923;53.220;6.528;2024-01-16T02:08:18;-0.70;99.90
52965;DHT22;42923;53.220;6.528;2024-01-16T02:10:44;-0.70;99.90
52965;DHT22;42923;53.220;6.528;2024-01-16T02:13:11;-0.80;99.90
52965;DHT22;42923;53.220;6.528;2024-01-16T02:15:36;-0.80;99.90
52965;DHT22;42923;53.220;6.528;2024-01-16T02:18:04;-0.80;99.90
52965;DHT22;42923;53.220;6.528;2024-01-16T02:20:31;-0.90;99.90
52965;DHT22;42923;53.220;6.528;2024-01-16T02:22:56;-0.90;99.90
52965;DHT22;42923;53.220;6.528;2024-01-16T02:25:25;-0.90;99.90
52965;DHT22;42923;53.220;6.528;2024-01-16T02:27:51;0.10;99.90
52965;DHT22;42923;53.220;6.528;2024-01-16T02:30:17;-0.90;99.90
52965;DHT22;42923;53.220;6.528;2024-01-16T02:32:43;-1.00;99.90
52965;DHT22;42923;53.220;6.528;2024-01-16T02:35:09;-1.00;99.90
52965;DHT22;42923;53.220;6.528;2024-01-16T02:37:35;-1.00;99.90
52965;DHT22;42923;53.220;6.528;2024-01-16T02:40:01;-1.10;99.90
52965;DHT22;42923;53.220;6.528;2024-01-16T02:42:34;-1.10;99.90
52965;DHT22;42923;53.220;6.528;2024-01-16T02:45:00;-1.10;99.90
52965;DHT22;42923;53.220;6.528;2024-01-16T02:47:25;-0.60;99.90
52965;DHT22;42923;53.220;6.528;2024-01-16T02:49:51;-1.00;99.90
52965;DHT22;42923;53.220;6.528;2024-01-16T02:52:16;-0.90;99.90
52965;DHT22;42923;53.220;6.528;2024-01-16T02:54:42;-0.90;99.90
52965;DHT22;42923;53.220;6.528;2024-01-16T02:57:08;-0.90;99.90
52965;DHT22;42923;53.220;6.528;2024-01-16T02:59:33;-0.90;99.90
52965;DHT22;42923;53.220;6.528;2024-01-16T03:01:59;0.80;99.90
52965;DHT22;42923;53.220;6.528;2024-01-16T03:04:24;-0.90;99.90
52965;DHT22;42923;53.220;6.528;2024-01-16T03:06:50;-1.00;99.90
52965;DHT22;42923;53.220;6.528;2024-01-16T03:09:15;-1.00;99.90
52965;DHT22;42923;53.220;6.528;2024-01-16T03:11:41;-1.00;99.90
52965;DHT22;42923;53.220;6.528;2024-01-16T03:14:07;-1.00;99.90
52965;DHT22;42923;53.220;6.528;2024-01-16T03:16:32;-1.00;99.90
52965;DHT22;42923;53.220;6.528;2024-01-16T03:18:58;-1.10;99.90
52965;DHT22;42923;53.220;6.528;2024-01-16T03:21:23;-1.10;99.90
52965;DHT22;42923;53.220;6.528;2024-01-16T03:23:49;-1.10;99.90
52965;DHT22;42923;53.220;6.528;2024-01-16T03:26:15;-1.20;99.90
52965;DHT22;42923;53.220;6.528;2024-01-16T03:28:41;-0.80;99.90
52965;DHT22;42923;53.220;6.528;2024-01-16T03:31:07;-1.20;99.90
52965;DHT22;42923;53.220;6.528;2024-01-16T03:33:33;-1.20;99.90
52965;DHT22;42923;53.220;6.528;2024-01-16T03:36:00;-1.30;99.90
52965;DHT22;42923;53.220;6.528;2024-01-16T03:38:27;-1.20;99.90
52965;DHT22;42923;53.220;6.528;2024-01-16T03:40:52;0.30;99.90
52965;DHT22;42923;53.220;6.528;2024-01-16T03:43:18;-0.30;99.90
52965;DHT22;42923;53.220;6.528;2024-01-16T03:45:44;-1.30;99.90
52965;DHT22;42923;53.220;6.528;2024-01-16T03:48:09;-1.20;99.90
52965;DHT22;42923;53.220;6.528;2024-01-16T03:50:35;-1.20;99.90
52965;DHT22;42923;53.220;6.528;2024-01-16T03:53:02;-0.60;99.90
52965;DHT22;42923;53.220;6.528;2024-01-16T03:55:29;-1.20;99.90
52965;DHT22;42923;53.220;6.528;2024-01-16T03:57:55;-1.20;99.90
52965;DHT22;42923;53.220;6.528;2024-01-16T04:00:21;-1.10;99.90
52965;DHT22;42923;53.220;6.528;2024-01-16T04:02:46;-1.00;99.90
52965;DHT22;42923;53.220;6.528;2024-01-16T04:05:13;-0.90;99.90
52965;DHT22;42923;53.220;6.528;2024-01-16T04:07:38;-0.90;99.90
52965;DHT22;42923;53.220;6.528;2024-01-16T04:10:04;-0.50;99.90
52965;DHT22;42923;53.220;6.528;2024-01-16T04:12:30;-0.80;99.90
52965;DHT22;42923;53.220;6.528;2024-01-16T04:14:56;-0.80;99.90
52965;DHT22;42923;53.220;6.528;2024-01-16T04:17:21;-0.80;99.90
52965;DHT22;42923;53.220;6.528;2024-01-16T04:19:47;-0.80;99.90
52965;DHT22;42923;53.220;6.528;2024-01-16T04:22:13;-0.70;99.90
52965;DHT22;42923;53.220;6.528;2024-01-16T04:24:38;-0.70;99.90
52965;DHT22;42923;53.220;6.528;2024-01-16T04:27:04;-1.50;99.90
52965;DHT22;42923;53.220;6.528;2024-01-16T04:29:30;-0.70;99.90
52965;DHT22;42923;53.220;6.528;2024-01-16T04:31:56;-0.60;99.90
52965;DHT22;42923;53.220;6.528;2024-01-16T04:34:21;-0.60;99.90
52965;DHT22;42923;53.220;6.528;2024-01-16T04:36:47;0.60;99.90
52965;DHT22;42923;53.220;6.528;2024-01-16T04:39:13;-0.60;99.90
52965;DHT22;42923;53.220;6.528;2024-01-16T04:41:39;0.00;99.90
52965;DHT22;42923;53.220;6.528;2024-01-16T04:44:04;-0.60;99.90
52965;DHT22;42923;53.220;6.528;2024-01-16T04:46:30;0.50;99.90
52965;DHT22;42923;53.220;6.528;2024-01-16T04:48:56;-0.60;99.90
52965;DHT22;42923;53.220;6.528;2024-01-16T04:51:21;0.10;99.90
52965;DHT22;42923;53.220;6.528;2024-01-16T04:53:47;-0.50;99.90
52965;DHT22;42923;53.220;6.528;2024-01-16T04:56:13;-0.50;99.90
52965;DHT22;42923;53.220;6.528;2024-01-16T04:58:38;-0.40;99.90
52965;DHT22;42923;53.220;6.528;2024-01-16T05:01:04;-0.30;99.90
52965;DHT22;42923;53.220;6.528;2024-01-16T05:03:30;-0.30;99.90
52965;DHT22;42923;53.220;6.528;2024-01-16T05:05:55;-0.20;99.90
52965;DHT22;42923;53.220;6.528;2024-01-16T05:08:22;-0.30;99.90
52965;DHT22;42923;53.220;6.528;2024-01-16T05:10:49;-0.30;99.90
52965;DHT22;42923;53.220;6.528;2024-01-16T05:13:15;-0.30;99.90
52965;DHT22;42923;53.220;6.528;2024-01-16T05:15:41;1.60;99.90
52965;DHT22;42923;53.220;6.528;2024-01-16T05:18:07;-0.40;99.90
52965;DHT22;42923;53.220;6.528;2024-01-16T05:20:33;-0.50;99.90
52965;DHT22;42923;53.220;6.528;2024-01-16T05:22:59;-0.50;99.90
52965;DHT22;42923;53.220;6.528;2024-01-16T05:25:24;0.30;99.90
52965;DHT22;42923;53.220;6.528;2024-01-16T05:27:50;-0.50;99.90
52965;DHT22;42923;53.220;6.528;2024-01-16T05:30:16;-0.40;99.90
52965;DHT22;42923;53.220;6.528;2024-01-16T05:32:42;-0.30;99.90
52965;DHT22;42923;53.220;6.528;2024-01-16T05:35:07;-0.30;99.90
52965;DHT22;42923;53.220;6.528;2024-01-16T05:37:35;-0.20;99.90
52965;DHT22;42923;53.220;6.528;2024-01-16T05:40:01;-0.20;99.90
52965;DHT22;42923;53.220;6.528;2024-01-16T05:42:29;-0.20;99.90
52965;DHT22;42923;53.220;6.528;2024-01-16T05:44:55;-0.10;99.90
52965;DHT22;42923;53.220;6.528;2024-01-16T05:47:20;1.50;99.90
52965;DHT22;42923;53.220;6.528;2024-01-16T05:49:49;0.00;99.90
52965;DHT22;42923;53.220;6.528;2024-01-16T05:52:15;-0.10;99.90
52965;DHT22;42923;53.220;6.528;2024-01-16T05:54:41;0.00;99.90
52965;DHT22;42923;53.220;6.528;2024-01-16T05:57:06;0.00;99.90
52965;DHT22;42923;53.220;6.528;2024-01-16T05:59:32;-0.10;99.90
52965;DHT22;42923;53.220;6.528;2024-01-16T06:01:57;-0.10;99.90
52965;DHT22;42923;53.220;6.528;2024-01-16T06:04:23;0.00;99.90
52965;DHT22;42923;53.220;6.528;2024-01-16T06:06:49;-0.10;99.90
52965;DHT22;42923;53.220;6.528;2024-01-16T06:09:14;-0.10;99.90
52965;DHT22;42923;53.220;6.528;2024-01-16T06:11:40;-0.10;99.90
52965;DHT22;42923;53.220;6.528;2024-01-16T06:14:07;-0.10;99.90
52965;DHT22;42923;53.220;6.528;2024-01-16T06:16:33;-0.10;99.90
52965;DHT22;42923;53.220;6.528;2024-01-16T06:18:58;-0.20;99.90
52965;DHT22;42923;53.220;6.528;2024-01-16T06:21:24;-0.20;99.90
52965;DHT22;42923;53.220;6.528;2024-01-16T06:23:50;-0.30;99.90
52965;DHT22;42923;53.220;6.528;2024-01-16T06:26:15;-0.20;99.90
52965;DHT22;42923;53.220;6.528;2024-01-16T06:28:41;-0.20;99.90
52965;DHT22;42923;53.220;6.528;2024-01-16T06:31:10;-0.30;99.90
52965;DHT22;42923;53.220;6.528;2024-01-16T06:33:37;-0.30;99.90
52965;DHT22;42923;53.220;6.528;2024-01-16T06:36:03;-0.30;99.90
52965;DHT22;42923;53.220;6.528;2024-01-16T06:38:32;-0.30;99.90
52965;DHT22;42923;53.220;6.528;2024-01-16T06:40:58;0.40;99.90
52965;DHT22;42923;53.220;6.528;2024-01-16T06:43:24;-0.40;99.90
52965;DHT22;42923;53.220;6.528;2024-01-16T06:45:50;-0.40;99.90
52965;DHT22;42923;53.220;6.528;2024-01-16T06:48:15;-0.40;99.90
52965;DHT22;42923;53.220;6.528;2024-01-16T06:50:41;-0.40;99.90
52965;DHT22;42923;53.220;6.528;2024-01-16T06:53:07;-0.50;99.90
52965;DHT22;42923;53.220;6.528;2024-01-16T06:55:32;-0.50;99.90
52965;DHT22;42923;53.220;6.528;2024-01-16T06:57:58;0.30;99.90
52965;DHT22;42923;53.220;6.528;2024-01-16T07:00:24;-0.70;99.90
52965;DHT22;42923;53.220;6.528;2024-01-16T07:02:51;-0.50;99.90
52965;DHT22;42923;53.220;6.528;2024-01-16T07:05:17;-0.50;99.90
52965;DHT22;42923;53.220;6.528;2024-01-16T07:07:43;-0.50;99.90
52965;DHT22;42923;53.220;6.528;2024-01-16T07:10:08;-0.50;99.90
52965;DHT22;42923;53.220;6.528;2024-01-16T07:12:39;-0.50;99.90
52965;DHT22;42923;53.220;6.528;2024-01-16T07:15:05;0.90;99.90
52965;DHT22;42923;53.220;6.528;2024-01-16T07:17:31;-0.60;99.90
52965;DHT22;42923;53.220;6.528;2024-01-16T07:19:56;-0.60;99.90
52965;DHT22;42923;53.220;6.528;2024-01-16T07:22:24;1.10;99.90
52965;DHT22;42923;53.220;6.528;2024-01-16T07:24:49;1.10;99.90
52965;DHT22;42923;53.220;6.528;2024-01-16T07:27:15;-0.60;99.90
52965;DHT22;42923;53.220;6.528;2024-01-16T07:29:40;0.80;99.90
52965;DHT22;42923;53.220;6.528;2024-01-16T07:32:07;-0.70;99.90
52965;DHT22;42923;53.220;6.528;2024-01-16T07:34:32;-0.60;99.90
52965;DHT22;42923;53.220;6.528;2024-01-16T07:36:58;-0.60;99.90
52965;DHT22;42923;53.220;6.528;2024-01-16T07:39:24;-0.60;99.90
52965;DHT22;42923;53.220;6.528;2024-01-16T07:41:49;-0.60;99.90
52965;DHT22;42923;53.220;6.528;2024-01-16T07:44:15;-0.90;99.90
52965;DHT22;42923;53.220;6.528;2024-01-16T07:46:40;-0.60;99.90
52965;DHT22;42923;53.220;6.528;2024-01-16T07:49:06;-1.00;99.90
52965;DHT22;42923;53.220;6.528;2024-01-16T07:51:31;-0.60;99.90
52965;DHT22;42923;53.220;6.528;2024-01-16T07:54:07;-0.60;99.90
52965;DHT22;42923;53.220;6.528;2024-01-16T07:56:34;-0.60;99.90
52965;DHT22;42923;53.220;6.528;2024-01-16T07:58:59;-0.60;99.90
52965;DHT22;42923;53.220;6.528;2024-01-16T08:01:29;-0.60;99.90
52965;DHT22;42923;53.220;6.528;2024-01-16T08:03:55;-0.50;99.90
52965;DHT22;42923;53.220;6.528;2024-01-16T08:06:21;-0.60;99.90
52965;DHT22;42923;53.220;6.528;2024-01-16T08:08:47;1.30;99.90
52965;DHT22;42923;53.220;6.528;2024-01-16T08:11:14;-0.50;99.90
52965;DHT22;42923;53.220;6.528;2024-01-16T08:13:40;-0.50;99.90
52965;DHT22;42923;53.220;6.528;2024-01-16T08:16:05;-0.40;99.90
52965;DHT22;42923;53.220;6.528;2024-01-16T08:18:31;-0.40;99.90
52965;DHT22;42923;53.220;6.528;2024-01-16T08:20:57;-0.30;99.90
52965;DHT22;42923;53.220;6.528;2024-01-16T08:23:22;-0.20;99.90
52965;DHT22;42923;53.220;6.528;2024-01-16T08:25:48;-0.20;99.90
52965;DHT22;42923;53.220;6.528;2024-01-16T08:28:14;-0.20;99.90
52965;DHT22;42923;53.220;6.528;2024-01-16T08:30:40;-0.10;99.90
52965;DHT22;42923;53.220;6.528;2024-01-16T08:33:06;1.10;99.90
52965;DHT22;42923;53.220;6.528;2024-01-16T08:35:32;0.00;99.90
52965;DHT22;42923;53.220;6.528;2024-01-16T08:37:58;1.40;99.90
52965;DHT22;42923;53.220;6.528;2024-01-16T08:40:24;1.40;99.90
52965;DHT22;42923;53.220;6.528;2024-01-16T08:42:49;0.10;99.90
52965;DHT22;42923;53.220;6.528;2024-01-16T08:45:23;0.10;99.90
52965;DHT22;42923;53.220;6.528;2024-01-16T08:47:49;0.10;99.90
52965;DHT22;42923;53.220;6.528;2024-01-16T08:50:17;0.40;99.90
52965;DHT22;42923;53.220;6.528;2024-01-16T08:52:43;0.10;99.90
52965;DHT22;42923;53.220;6.528;2024-01-16T08:55:08;0.10;99.90
52965;DHT22;42923;53.220;6.528;2024-01-16T08:57:35;0.20;99.90
52965;DHT22;42923;53.220;6.528;2024-01-16T09:00:03;2.10;99.90
52965;DHT22;42923;53.220;6.528;2024-01-16T09:02:29;0.20;99.90
52965;DHT22;42923;53.220;6.528;2024-01-16T09:04:56;0.40;99.90
52965;DHT22;42923;53.220;6.528;2024-01-16T09:07:22;0.40;99.90
52965;DHT22;42923;53.220;6.528;2024-01-16T09:09:48;1.80;99.90
52965;DHT22;42923;53.220;6.528;2024-01-16T09:12:14;0.50;99.90
52965;DHT22;42923;53.220;6.528;2024-01-16T09:14:40;0.60;99.90
52965;DHT22;42923;53.220;6.528;2024-01-16T09:17:06;0.60;99.90
52965;DHT22;42923;53.220;6.528;2024-01-16T09:19:32;0.60;99.90
52965;DHT22;42923;53.220;6.528;2024-01-16T09:21:57;0.60;99.90
52965;DHT22;42923;53.220;6.528;2024-01-16T09:24:23;0.60;99.90
52965;DHT22;42923;53.220;6.528;2024-01-16T09:26:49;0.60;99.90
52965;DHT22;42923;53.220;6.528;2024-01-16T09:29:14;0.60;99.90
52965;DHT22;42923;53.220;6.528;2024-01-16T09:31:43;1.30;99.90
52965;DHT22;42923;53.220;6.528;2024-01-16T09:34:08;0.60;99.90
52965;DHT22;42923;53.220;6.528;2024-01-16T09:36:34;0.70;99.90
52965;DHT22;42923;53.220;6.528;2024-01-16T09:39:04;0.70;99.90
52965;DHT22;42923;53.220;6.528;2024-01-16T09:41:33;1.10;99.90
52965;DHT22;42923;53.220;6.528;2024-01-16T09:43:59;0.80;99.90
52965;DHT22;42923;53.220;6.528;2024-01-16T09:46:25;0.90;99.90
52965;DHT22;42923;53.220;6.528;2024-01-16T09:48:51;1.10;99.90
52965;DHT22;42923;53.220;6.528;2024-01-16T09:51:19;1.30;99.90
52965;DHT22;42923;53.220;6.528;2024-01-16T09:53:45;1.40;99.90
52965;DHT22;42923;53.220;6.528;2024-01-16T09:56:13;1.50;99.90
52965;DHT22;42923;53.220;6.528;2024-01-16T09:58:40;1.50;99.90
52965;DHT22;42923;53.220;6.528;2024-01-16T10:01:06;2.20;99.90
52965;DHT22;42923;53.220;6.528;2024-01-16T10:03:31;1.50;99.90
52965;DHT22;42923;53.220;6.528;2024-01-16T10:06:01;1.50;99.90
52965;DHT22;42923;53.220;6.528;2024-01-16T10:08:28;1.50;99.90
52965;DHT22;42923;53.220;6.528;2024-01-16T10:10:54;2.80;99.90
52965;DHT22;42923;53.220;6.528;2024-01-16T10:13:19;1.30;99.90
52965;DHT22;42923;53.220;6.528;2024-01-16T10:15:48;1.30;99.90
52965;DHT22;42923;53.220;6.528;2024-01-16T10:18:24;1.20;99.90
52965;DHT22;42923;53.220;6.528;2024-01-16T10:20:50;1.20;99.90
52965;DHT22;42923;53.220;6.528;2024-01-16T10:23:21;1.20;99.90
52965;DHT22;42923;53.220;6.528;2024-01-16T10:25:50;1.30;99.90
52965;DHT22;42923;53.220;6.528;2024-01-16T10:28:29;-0.10;99.90
52965;DHT22;42923;53.220;6.528;2024-01-16T10:31:02;1.20;99.90
52965;DHT22;42923;53.220;6.528;2024-01-16T10:33:28;1.20;99.90
52965;DHT22;42923;53.220;6.528;2024-01-16T10:36:12;1.70;99.90
52965;DHT22;42923;53.220;6.528;2024-01-16T10:38:39;1.20;99.90
52965;DHT22;42923;53.220;6.528;2024-01-16T10:41:05;1.20;99.90
52965;DHT22;42923;53.220;6.528;2024-01-16T10:43:31;1.20;99.90
52965;DHT22;42923;53.220;6.528;2024-01-16T10:46:06;2.20;99.90
52965;DHT22;42923;53.220;6.528;2024-01-16T10:48:32;1.10;99.90
52965;DHT22;42923;53.220;6.528;2024-01-16T10:50:58;1.40;99.90
52965;DHT22;42923;53.220;6.528;2024-01-16T10:53:23;1.30;99.90
52965;DHT22;42923;53.220;6.528;2024-01-16T10:55:51;1.10;99.90
52965;DHT22;42923;53.220;6.528;2024-01-16T10:58:19;1.00;99.90
52965;DHT22;42923;53.220;6.528;2024-01-16T11:00:50;1.20;99.90
52965;DHT22;42923;53.220;6.528;2024-01-16T11:03:29;1.20;99.90
52965;DHT22;42923;53.220;6.528;2024-01-16T11:06:00;1.30;99.90
52965;DHT22;42923;53.220;6.528;2024-01-16T11:08:26;1.30;99.90
52965;DHT22;42923;53.220;6.528;2024-01-16T11:10:57;1.30;99.90
52965;DHT22;42923;53.220;6.528;2024-01-16T11:13:23;1.30;99.90
52965;DHT22;42923;53.220;6.528;2024-01-16T11:15:49;1.30;99.90
52965;DHT22;42923;53.220;6.528;2024-01-16T11:18:15;1.90;99.90
52965;DHT22;42923;53.220;6.528;2024-01-16T11:20:42;1.40;99.90
52965;DHT22;42923;53.220;6.528;2024-01-16T11:23:09;2.40;99.90
52965;DHT22;42923;53.220;6.528;2024-01-16T11:25:35;1.50;99.90
52965;DHT22;42923;53.220;6.528;2024-01-16T11:28:10;2.50;99.90
52965;DHT22;42923;53.220;6.528;2024-01-16T11:30:37;1.60;99.90
52965;DHT22;42923;53.220;6.528;2024-01-16T11:33:03;1.60;99.90
52965;DHT22;42923;53.220;6.528;2024-01-16T11:35:35;1.60;99.90
52965;DHT22;42923;53.220;6.528;2024-01-16T11:38:17;2.60;99.90
52965;DHT22;42923;53.220;6.528;2024-01-16T11:40:44;1.70;99.90
52965;DHT22;42923;53.220;6.528;2024-01-16T11:43:56;2.00;99.90
52965;DHT22;42923;53.220;6.528;2024-01-16T11:45:56;1.70;99.90
52965;DHT22;42923;53.220;6.528;2024-01-16T11:48:24;2.60;99.90
52965;DHT22;42923;53.220;6.528;2024-01-16T11:50:50;1.70;99.90
52965;DHT22;42923;53.220;6.528;2024-01-16T11:53:35;2.60;99.90
52965;DHT22;42923;53.220;6.528;2024-01-16T11:56:11;1.70;99.90
52965;DHT22;42923;53.220;6.528;2024-01-16T11:58:45;1.70;99.90
52965;DHT22;42923;53.220;6.528;2024-01-16T12:01:11;1.70;99.90
52965;DHT22;42923;53.220;6.528;2024-01-16T12:03:37;1.60;99.90
52965;DHT22;42923;53.220;6.528;2024-01-16T12:06:03;2.70;99.90
52965;DHT22;42923;53.220;6.528;2024-01-16T12:08:31;1.60;99.90
52965;DHT22;42923;53.220;6.528;2024-01-16T12:11:00;1.60;99.90
52965;DHT22;42923;53.220;6.528;2024-01-16T12:13:25;1.50;99.90
52965;DHT22;42923;53.220;6.528;2024-01-16T12:16:01;1.50;99.90
52965;DHT22;42923;53.220;6.528;2024-01-16T12:18:27;1.40;99.90
52965;DHT22;42923;53.220;6.528;2024-01-16T12:20:52;0.20;99.90
52965;DHT22;42923;53.220;6.528;2024-01-16T12:23:18;1.90;99.90
52965;DHT22;42923;53.220;6.528;2024-01-16T12:25:45;1.30;99.90
52965;DHT22;42923;53.220;6.528;2024-01-16T12:28:12;1.20;99.90
52965;DHT22;42923;53.220;6.528;2024-01-16T12:30:48;1.10;99.90
52965;DHT22;42923;53.220;6.528;2024-01-16T12:33:14;2.30;99.90
52965;DHT22;42923;53.220;6.528;2024-01-16T12:35:43;1.10;99.90
52965;DHT22;42923;53.220;6.528;2024-01-16T12:38:12;1.00;99.90
52965;DHT22;42923;53.220;6.528;2024-01-16T12:40:43;1.20;99.90
52965;DHT22;42923;53.220;6.528;2024-01-16T12:43:10;1.30;99.90
52965;DHT22;42923;53.220;6.528;2024-01-16T12:45:35;2.20;99.90
52965;DHT22;42923;53.220;6.528;2024-01-16T12:48:01;3.10;99.90
52965;DHT22;42923;53.220;6.528;2024-01-16T12:50:31;1.40;99.90
52965;DHT22;42923;53.220;6.528;2024-01-16T12:53:04;2.90;99.90
52965;DHT22;42923;53.220;6.528;2024-01-16T12:55:39;0.30;99.90
52965;DHT22;42923;53.220;6.528;2024-01-16T12:58:38;1.50;99.90
52965;DHT22;42923;53.220;6.528;2024-01-16T13:00:57;1.50;99.90
52965;DHT22;42923;53.220;6.528;2024-01-16T13:03:26;1.70;99.90
52965;DHT22;42923;53.220;6.528;2024-01-16T13:05:55;1.80;99.90
52965;DHT22;42923;53.220;6.528;2024-01-16T13:08:22;2.00;99.90
52965;DHT22;42923;53.220;6.528;2024-01-16T13:11:02;2.20;99.90
52965;DHT22;42923;53.220;6.528;2024-01-16T13:13:28;2.50;99.90
52965;DHT22;42923;53.220;6.528;2024-01-16T13:15:55;2.70;99.90
52965;DHT22;42923;53.220;6.528;2024-01-16T13:18:23;2.70;99.90
52965;DHT22;42923;53.220;6.528;2024-01-16T13:20:49;2.80;99.90
52965;DHT22;42923;53.220;6.528;2024-01-16T13:23:15;2.90;99.90
52965;DHT22;42923;53.220;6.528;2024-01-16T13:25:42;2.90;99.90
52965;DHT22;42923;53.220;6.528;2024-01-16T13:28:07;3.70;99.90
52965;DHT22;42923;53.220;6.528;2024-01-16T13:30:33;3.10;99.90
52965;DHT22;42923;53.220;6.528;2024-01-16T13:32:59;3.10;99.90
52965;DHT22;42923;53.220;6.528;2024-01-16T13:35:24;3.00;99.90
52965;DHT22;42923;53.220;6.528;2024-01-16T13:37:50;3.30;99.90
52965;DHT22;42923;53.220;6.528;2024-01-16T13:40:16;3.60;99.90
52965;DHT22;42923;53.220;6.528;2024-01-16T13:42:44;4.00;99.90
52965;DHT22;42923;53.220;6.528;2024-01-16T13:45:11;4.40;99.90
52965;DHT22;42923;53.220;6.528;2024-01-16T13:47:38;4.50;99.90
52965;DHT22;42923;53.220;6.528;2024-01-16T13:50:06;4.70;99.90
52965;DHT22;42923;53.220;6.528;2024-01-16T13:52:32;4.80;99.90
52965;DHT22;42923;53.220;6.528;2024-01-16T13:54:57;5.00;99.90
52965;DHT22;42923;53.220;6.528;2024-01-16T13:57:23;5.10;99.90
52965;DHT22;42923;53.220;6.528;2024-01-16T13:59:49;5.30;99.90
52965;DHT22;42923;53.220;6.528;2024-01-16T14:02:14;5.80;99.90
52965;DHT22;42923;53.220;6.528;2024-01-16T14:04:40;5.70;99.90
52965;DHT22;42923;53.220;6.528;2024-01-16T14:07:06;5.80;99.90
52965;DHT22;42923;53.220;6.528;2024-01-16T14:09:33;5.40;99.90
52965;DHT22;42923;53.220;6.528;2024-01-16T14:11:59;5.90;99.90
52965;DHT22;42923;53.220;6.528;2024-01-16T14:14:25;5.40;99.90
52965;DHT22;42923;53.220;6.528;2024-01-16T14:16:50;5.10;99.90
52965;DHT22;42923;53.220;6.528;2024-01-16T14:19:17;4.80;99.90
52965;DHT22;42923;53.220;6.528;2024-01-16T14:21:42;4.80;99.90
52965;DHT22;42923;53.220;6.528;2024-01-16T14:24:08;4.90;99.90
52965;DHT22;42923;53.220;6.528;2024-01-16T14:26:35;4.70;99.90
52965;DHT22;42923;53.220;6.528;2024-01-16T14:29:00;4.70;99.90
52965;DHT22;42923;53.220;6.528;2024-01-16T14:31:26;4.40;99.90
52965;DHT22;42923;53.220;6.528;2024-01-16T14:33:52;4.20;99.90
52965;DHT22;42923;53.220;6.528;2024-01-16T14:36:18;4.10;99.90
52965;DHT22;42923;53.220;6.528;2024-01-16T14:38:45;4.10;99.90
52965;DHT22;42923;53.220;6.528;2024-01-16T14:41:11;4.10;99.90
52965;DHT22;42923;53.220;6.528;2024-01-16T14:43:37;4.00;99.90
52965;DHT22;42923;53.220;6.528;2024-01-16T14:46:03;3.90;99.90
52965;DHT22;42923;53.220;6.528;2024-01-16T14:48:30;3.80;99.90
52965;DHT22;42923;53.220;6.528;2024-01-16T14:50:56;3.60;99.90
52965;DHT22;42923;53.220;6.528;2024-01-16T14:53:21;3.40;99.90
52965;DHT22;42923;53.220;6.528;2024-01-16T14:55:47;3.20;99.90
52965;DHT22;42923;53.220;6.528;2024-01-16T14:58:14;3.10;99.90
52965;DHT22;42923;53.220;6.528;2024-01-16T15:00:39;3.10;99.90
52965;DHT22;42923;53.220;6.528;2024-01-16T15:03:05;3.00;99.90
52965;DHT22;42923;53.220;6.528;2024-01-16T15:05:31;3.20;99.90
52965;DHT22;42923;53.220;6.528;2024-01-16T15:07:57;2.90;99.90
52965;DHT22;42923;53.220;6.528;2024-01-16T15:10:23;2.70;99.90
52965;DHT22;42923;53.220;6.528;2024-01-16T15:12:49;2.40;99.90
52965;DHT22;42923;53.220;6.528;2024-01-16T15:15:15;2.10;99.90
52965;DHT22;42923;53.220;6.528;2024-01-16T15:17:41;1.90;99.90
52965;DHT22;42923;53.220;6.528;2024-01-16T15:20:07;1.60;99.90
52965;DHT22;42923;53.220;6.528;2024-01-16T15:22:39;1.40;99.90
52965;DHT22;42923;53.220;6.528;2024-01-16T15:25:05;1.30;99.90
52965;DHT22;42923;53.220;6.528;2024-01-16T15:27:31;1.10;99.90
52965;DHT22;42923;53.220;6.528;2024-01-16T15:29:57;1.00;99.90
52965;DHT22;42923;53.220;6.528;2024-01-16T15:32:24;1.00;99.90
52965;DHT22;42923;53.220;6.528;2024-01-16T15:34:50;1.70;99.90
52965;DHT22;42923;53.220;6.528;2024-01-16T15:37:16;0.80;99.90